createdAt,value
2022-11-24T00:01:05.949Z,95336.84
2022-11-24T00:03:32.914Z,95333.53
2022-11-24T00:06:07.792Z,95334.59
2022-11-24T00:08:39.021Z,95336.28
2022-11-24T00:11:26.592Z,95333.38
2022-11-24T00:13:54.031Z,95337.84
2022-11-24T00:16:23.622Z,95335.47
2022-11-24T00:18:52.056Z,95342.19
2022-11-24T00:21:19.624Z,95335.44
2022-11-24T00:23:47.384Z,95341.69
2022-11-24T00:26:16.885Z,95343.84
2022-11-24T00:28:45.001Z,95359.53
2022-11-24T00:31:23.512Z,95356.53
2022-11-24T00:33:53.091Z,95354.03
2022-11-24T00:36:21.908Z,95349.56
2022-11-24T00:38:52.641Z,95356.53
2022-11-24T00:41:19.288Z,95359.44
2022-11-24T00:43:45.952Z,95349.88
2022-11-24T00:46:12.784Z,95349.56
2022-11-24T00:48:39.548Z,95355.84
2022-11-24T00:51:08.283Z,95349.38
2022-11-24T00:53:35.402Z,95357.88
2022-11-24T00:56:04.098Z,95368.06
2022-11-24T00:58:31.733Z,95364.78
2022-11-24T01:01:03.801Z,95381.03
2022-11-24T01:03:30.924Z,95390.91
2022-11-24T01:06:09.897Z,95407.84
2022-11-24T01:08:37.809Z,95416.00
2022-11-24T01:11:55.482Z,95408.22
2022-11-24T01:14:23.691Z,95413.75
2022-11-24T01:16:50.477Z,95418.88
2022-11-24T01:19:17.476Z,95417.81
2022-11-24T01:21:44.313Z,95404.72
2022-11-24T01:24:11.615Z,95397.19
2022-11-24T01:26:38.643Z,95401.41
2022-11-24T01:29:05.441Z,95416.06
2022-11-24T01:31:32.979Z,95428.00
2022-11-24T01:33:59.612Z,95422.31
2022-11-24T01:36:26.303Z,95408.97
2022-11-24T01:38:52.977Z,95421.22
2022-11-24T01:41:22.245Z,95419.22
2022-11-24T01:43:49.728Z,95417.97
2022-11-24T01:46:22.088Z,95413.81
2022-11-24T01:48:54.696Z,95419.31
2022-11-24T01:51:25.342Z,95430.16
2022-11-24T01:54:06.461Z,95425.28
2022-11-24T01:56:36.817Z,95409.81
2022-11-24T01:59:07.563Z,95408.91
2022-11-24T02:01:34.628Z,95436.22
2022-11-24T02:04:04.559Z,95416.06
2022-11-24T02:06:35.405Z,95419.56
2022-11-24T02:09:25.629Z,95419.16
2022-11-24T02:11:54.521Z,95432.41
2022-11-24T02:14:23.819Z,95423.50
2022-11-24T02:16:51.582Z,95424.59
2022-11-24T02:19:39.906Z,95434.44
2022-11-24T02:22:18.985Z,95427.16
2022-11-24T02:24:56.209Z,95436.31
2022-11-24T02:27:23.518Z,95427.41
2022-11-24T02:29:50.436Z,95424.97
2022-11-24T02:32:18.693Z,95424.44
2022-11-24T02:34:45.373Z,95425.31
2022-11-24T02:37:12.122Z,95420.16
2022-11-24T02:39:38.759Z,95423.00
2022-11-24T02:42:10.510Z,95415.41
2022-11-24T02:44:42.084Z,95424.00
2022-11-24T02:47:11.385Z,95422.50
2022-11-24T02:49:38.154Z,95438.25
2022-11-24T02:52:05.851Z,95431.38
2022-11-24T02:54:33.252Z,95434.34
2022-11-24T02:57:00.373Z,95439.59
2022-11-24T02:59:27.161Z,95442.28
2022-11-24T03:01:53.937Z,95449.22
2022-11-24T03:04:20.690Z,95462.13
2022-11-24T03:06:47.441Z,95457.47
2022-11-24T03:09:14.270Z,95466.38
2022-11-24T03:11:41.074Z,95484.09
2022-11-24T03:14:08.331Z,95488.22
2022-11-24T03:16:35.457Z,95496.28
2022-11-24T03:19:02.500Z,95495.50
2022-11-24T03:21:29.636Z,95502.88
2022-11-24T03:23:56.358Z,95508.44
2022-11-24T03:26:24.621Z,95513.09
2022-11-24T03:28:54.976Z,95522.28
2022-11-24T03:31:22.745Z,95527.44
2022-11-24T03:33:49.740Z,95525.78
2022-11-24T03:36:16.963Z,95535.63
2022-11-24T03:38:44.086Z,95537.88
2022-11-24T03:41:10.971Z,95530.66
2022-11-24T03:43:43.136Z,95537.53
2022-11-24T03:46:11.218Z,95557.00
2022-11-24T03:48:38.173Z,95563.13
2022-11-24T03:51:05.061Z,95564.53
2022-11-24T03:53:32.516Z,95573.59
2022-11-24T03:56:00.185Z,95572.03
2022-11-24T03:58:26.898Z,95563.03
2022-11-24T04:00:54.601Z,95569.78
2022-11-24T04:03:21.836Z,95575.38
2022-11-24T04:05:48.866Z,95587.56
2022-11-24T04:08:16.053Z,95589.66
2022-11-24T04:10:43.522Z,95585.31
2022-11-24T04:13:15.425Z,95582.47
2022-11-24T04:15:43.364Z,95574.63
2022-11-24T04:18:11.423Z,95573.81
2022-11-24T04:20:39.219Z,95568.78
2022-11-24T04:23:06.273Z,95569.44
2022-11-24T04:25:33.065Z,95576.16
2022-11-24T04:27:59.962Z,95562.88
2022-11-24T04:30:28.307Z,95561.19
2022-11-24T04:32:55.212Z,95579.47
2022-11-24T04:35:21.968Z,95579.81
2022-11-24T04:37:48.612Z,95579.63
2022-11-24T04:40:15.971Z,95579.47
2022-11-24T04:42:42.707Z,95581.50
2022-11-24T04:45:10.696Z,95571.16
2022-11-24T04:47:37.627Z,95569.03
2022-11-24T04:50:04.989Z,95572.84
2022-11-24T04:52:31.692Z,95580.63
2022-11-24T04:54:58.358Z,95577.22
2022-11-24T04:57:26.372Z,95595.00
2022-11-24T04:59:54.549Z,95616.13
2022-11-24T05:02:21.904Z,95620.00
2022-11-24T05:04:48.581Z,95627.91
2022-11-24T05:07:18.687Z,95636.44
2022-11-24T05:10:15.580Z,95658.44
2022-11-24T05:12:45.739Z,95650.41
2022-11-24T05:15:15.232Z,95650.75
2022-11-24T05:17:41.905Z,95652.97
2022-11-24T05:20:09.020Z,95665.13
2022-11-24T05:22:35.819Z,95665.47
2022-11-24T05:25:03.011Z,95672.81
2022-11-24T05:27:29.791Z,95668.09
2022-11-24T05:29:56.593Z,95664.06
2022-11-24T05:32:23.827Z,95657.53
2022-11-24T05:34:50.716Z,95651.66
2022-11-24T05:37:17.940Z,95651.34
2022-11-24T05:39:44.762Z,95648.50
2022-11-24T05:42:29.861Z,95662.28
2022-11-24T05:44:57.610Z,95671.22
2022-11-24T05:47:24.374Z,95674.66
2022-11-24T05:49:52.089Z,95683.28
2022-11-24T05:52:18.921Z,95684.56
2022-11-24T05:54:45.787Z,95700.28
2022-11-24T05:57:13.340Z,95703.53
2022-11-24T05:59:40.035Z,95709.91
2022-11-24T06:02:07.028Z,95710.88
2022-11-24T06:04:34.154Z,95704.09
2022-11-24T06:07:01.295Z,95710.56
2022-11-24T06:09:28.166Z,95717.16
2022-11-24T06:11:54.932Z,95707.88
2022-11-24T06:14:21.667Z,95712.72
2022-11-24T06:16:48.514Z,95705.28
2022-11-24T06:19:15.429Z,95716.41
2022-11-24T06:21:42.216Z,95711.84
2022-11-24T06:24:09.024Z,95705.13
2022-11-24T06:26:35.822Z,95704.63
2022-11-24T06:29:02.732Z,95706.13
2022-11-24T06:31:29.562Z,95706.56
2022-11-24T06:33:56.350Z,95688.41
2022-11-24T06:36:23.023Z,95681.56
2022-11-24T06:38:49.746Z,95682.63
2022-11-24T06:41:16.702Z,95684.03
2022-11-24T06:43:44.000Z,95682.91
2022-11-24T06:46:11.449Z,95669.81
2022-11-24T06:48:40.072Z,95682.75
2022-11-24T06:51:12.854Z,95670.97
2022-11-24T06:53:40.768Z,95670.56
2022-11-24T06:56:15.675Z,95676.81
2022-11-24T06:58:45.441Z,95674.22
2022-11-24T07:01:23.107Z,95672.28
2022-11-24T07:03:51.473Z,95669.16
2022-11-24T07:06:19.680Z,95671.97
2022-11-24T07:08:46.589Z,95676.41
2022-11-24T07:11:16.025Z,95678.34
2022-11-24T07:13:43.813Z,95669.28
2022-11-24T07:16:22.825Z,95654.84
2022-11-24T07:18:51.568Z,95657.94
2022-11-24T07:21:20.445Z,95661.84
2022-11-24T07:23:50.778Z,95664.81
2022-11-24T07:26:18.484Z,95669.81
2022-11-24T07:28:45.179Z,95679.09
2022-11-24T07:31:19.021Z,95694.28
2022-11-24T07:33:53.628Z,95711.41
2022-11-24T07:36:21.108Z,95706.53
2022-11-24T07:38:48.288Z,95733.78
2022-11-24T07:41:17.362Z,95749.25
2022-11-24T07:43:44.058Z,95749.47
2022-11-24T07:46:13.188Z,95760.66
2022-11-24T07:48:40.148Z,95763.16
2022-11-24T07:51:07.185Z,95770.47
2022-11-24T07:53:34.699Z,95776.41
2022-11-24T07:56:03.171Z,95768.13
2022-11-24T07:58:33.256Z,95786.66
2022-11-24T08:01:01.032Z,95808.38
2022-11-24T08:03:28.084Z,95809.25
2022-11-24T08:08:46.958Z,95855.84
2022-11-24T08:11:16.287Z,95911.63
2022-11-24T08:13:43.950Z,95931.59
2022-11-24T08:16:13.000Z,95970.34
2022-11-24T08:18:39.869Z,96001.69
2022-11-24T08:21:07.593Z,96010.59
2022-11-24T08:23:35.220Z,96004.34
2022-11-24T08:26:11.231Z,95974.69
2022-11-24T08:28:41.016Z,95953.22
2022-11-24T08:31:10.523Z,95925.72
2022-11-24T08:33:38.047Z,95904.47
2022-11-24T08:36:10.548Z,95884.53
2022-11-24T08:38:37.552Z,95855.41
2022-11-24T08:41:07.559Z,95832.88
2022-11-24T08:43:34.725Z,95825.09
2022-11-24T08:46:06.750Z,95808.81
2022-11-24T08:48:34.364Z,95797.94
2022-11-24T08:51:10.410Z,95811.19
2022-11-24T08:53:37.392Z,95816.50
2022-11-24T08:56:04.891Z,95827.03
2022-11-24T08:58:32.008Z,95817.63
2022-11-24T09:01:13.043Z,95818.63
2022-11-24T09:03:44.923Z,95820.47
2022-11-24T09:06:15.888Z,95817.56
2022-11-24T09:08:42.831Z,95823.66
2022-11-24T09:11:14.369Z,95835.69
2022-11-24T09:13:41.515Z,95840.44
2022-11-24T09:16:13.897Z,95837.91
2022-11-24T09:18:40.719Z,95847.22
2022-11-24T09:21:08.119Z,95856.69
2022-11-24T09:23:35.935Z,95856.88
2022-11-24T09:26:07.481Z,95860.34
2022-11-24T09:28:35.019Z,95868.94
2022-11-24T09:31:04.063Z,95881.75
2022-11-24T09:33:32.223Z,95893.25
2022-11-24T09:35:59.022Z,95905.06
2022-11-24T09:38:26.104Z,95933.28
2022-11-24T09:40:54.507Z,95955.09
2022-11-24T09:43:45.881Z,95977.94
2022-11-24T09:46:41.344Z,95992.81
2022-11-24T09:49:13.987Z,96011.19
2022-11-24T09:51:43.740Z,96025.13
2022-11-24T09:54:16.273Z,96030.94
2022-11-24T09:56:43.431Z,96019.41
2022-11-24T09:59:24.185Z,96026.44
2022-11-24T10:01:52.720Z,96028.41
2022-11-24T10:04:27.360Z,96046.56
2022-11-24T10:07:12.229Z,96046.50
2022-11-24T10:09:44.885Z,96083.66
2022-11-24T10:12:48.856Z,96085.72
2022-11-24T10:15:36.769Z,96104.41
2022-11-24T10:18:18.669Z,96124.94
2022-11-24T10:20:54.929Z,96138.91
2022-11-24T10:23:44.566Z,96166.19
2022-11-24T10:26:34.011Z,96209.09
2022-11-24T10:29:02.785Z,96237.97
2022-11-24T10:31:36.819Z,96270.25
2022-11-24T10:34:13.377Z,96249.13
2022-11-24T10:36:53.066Z,96223.34
2022-11-24T10:39:27.146Z,96223.53
2022-11-24T10:42:37.039Z,96216.41
2022-11-24T10:45:14.486Z,96188.53
2022-11-24T10:47:42.431Z,96187.13
2022-11-24T10:50:36.334Z,96197.53
2022-11-24T10:53:02.999Z,96224.88
2022-11-24T10:55:54.607Z,96226.25
2022-11-24T10:58:36.056Z,96263.78
2022-11-24T11:01:13.862Z,96254.69
2022-11-24T11:03:49.459Z,96233.63
2022-11-24T11:06:22.972Z,96241.06
2022-11-24T11:08:50.087Z,96257.84
2022-11-24T11:11:29.818Z,96235.22
2022-11-24T11:14:03.940Z,96242.34
2022-11-24T11:16:42.993Z,96240.53
2022-11-24T11:19:58.535Z,96267.75
2022-11-24T11:22:28.562Z,96310.72
2022-11-24T11:25:10.581Z,96310.91
2022-11-24T11:27:38.642Z,96357.31
2022-11-24T11:36:11.819Z,96348.31
2022-11-24T11:38:40.540Z,96359.25
2022-11-24T11:41:17.214Z,96369.09
2022-11-24T11:43:47.021Z,96368.97
2022-11-24T11:46:17.928Z,96341.94
2022-11-24T11:48:47.039Z,96324.09
2022-11-24T11:51:23.330Z,96326.38
2022-11-24T11:53:56.884Z,96309.19
2022-11-24T11:56:45.737Z,96315.59
2022-11-24T11:59:35.106Z,96313.19
2022-11-24T12:02:30.013Z,96326.41
2022-11-24T12:05:22.618Z,96349.50
2022-11-24T12:08:10.920Z,96406.94
2022-11-24T12:10:58.892Z,96429.56
2022-11-24T12:13:44.000Z,96469.25
2022-11-24T12:16:19.578Z,96491.59
2022-11-24T12:18:58.450Z,96499.16
2022-11-24T12:21:46.583Z,96537.59
2022-11-24T12:24:23.972Z,96563.34
2022-11-24T12:27:04.144Z,96562.88
2022-11-24T12:29:52.311Z,96570.13
2022-11-24T12:32:27.988Z,96632.75
2022-11-24T12:34:59.386Z,96663.16
2022-11-24T12:37:36.463Z,96675.63
2022-11-24T12:40:16.376Z,96689.72
2022-11-24T12:42:58.173Z,96684.28
2022-11-24T12:45:38.942Z,96714.81
2022-11-24T12:48:29.086Z,96692.50
2022-11-24T12:50:57.287Z,96717.06
2022-11-24T12:53:28.656Z,96698.34
2022-11-24T12:56:04.645Z,96702.03
2022-11-24T12:58:51.085Z,96660.69
2022-11-24T13:01:36.019Z,96696.16
2022-11-24T13:04:21.460Z,96709.22
2022-11-24T13:07:00.861Z,96673.81
2022-11-24T13:09:27.570Z,96646.34
2022-11-24T13:12:05.974Z,96663.41
2022-11-24T13:14:36.600Z,96668.34
2022-11-24T13:17:42.049Z,96638.47
2022-11-24T13:20:20.608Z,96663.00
2022-11-24T13:22:54.979Z,96711.06
2022-11-24T13:25:25.375Z,96703.16
2022-11-24T13:27:58.015Z,96707.69
2022-11-24T13:30:33.588Z,96755.03
2022-11-24T13:33:16.604Z,96727.94
2022-11-24T13:36:02.422Z,96716.88
2022-11-24T13:38:52.290Z,96769.03
2022-11-24T13:41:34.350Z,96795.75
2022-11-24T13:44:16.476Z,96781.63
2022-11-24T13:47:06.687Z,96782.00
2022-11-24T13:49:50.290Z,96776.34
2022-11-24T13:52:35.706Z,96776.72
2022-11-24T13:55:10.021Z,96818.97
2022-11-24T13:57:56.281Z,96831.53
2022-11-24T14:00:23.109Z,96835.06
2022-11-24T14:02:52.872Z,96870.09
2022-11-24T14:05:24.031Z,96904.72
2022-11-24T14:07:52.634Z,96926.44
2022-11-24T14:10:45.904Z,96869.53
2022-11-24T14:13:18.390Z,96836.78
2022-11-24T14:15:45.500Z,96853.53
2022-11-24T14:18:22.235Z,96813.41
2022-11-24T14:20:49.133Z,96781.59
2022-11-24T14:23:15.964Z,96811.38
2022-11-24T14:25:49.502Z,96815.03
2022-11-24T14:28:28.147Z,96816.28
2022-11-24T14:31:30.440Z,96839.75
2022-11-24T14:34:12.039Z,96822.25
2022-11-24T14:36:39.966Z,96771.91
2022-11-24T14:39:06.967Z,96782.25
2022-11-24T14:41:34.418Z,96773.75
2022-11-24T14:44:21.790Z,96752.41
2022-11-24T14:46:48.745Z,96785.03
2022-11-24T14:49:21.091Z,96801.97
2022-11-24T14:52:13.518Z,96787.97
2022-11-24T14:54:55.643Z,96836.47
2022-11-24T14:57:37.562Z,96817.84
2022-11-24T15:00:13.583Z,96809.31
2022-11-24T15:02:46.338Z,96819.97
2022-11-24T15:05:13.469Z,96753.81
2022-11-24T15:07:44.488Z,96775.91
2022-11-24T15:10:21.475Z,96793.78
2022-11-24T15:13:00.078Z,96801.25
2022-11-24T15:15:32.184Z,96787.53
2022-11-24T15:18:01.173Z,96794.84
2022-11-24T15:20:27.892Z,96768.19
2022-11-24T15:23:16.094Z,96754.22
2022-11-24T15:25:42.830Z,96737.59
2022-11-24T15:28:09.568Z,96726.91
2022-11-24T15:30:37.140Z,96702.41
2022-11-24T15:33:15.754Z,96698.16
2022-11-24T15:35:44.018Z,96705.19
2022-11-24T15:38:22.540Z,96683.25
2022-11-24T15:40:52.040Z,96674.25
2022-11-24T15:43:30.047Z,96682.78
2022-11-24T15:46:02.693Z,96662.09
2022-11-24T15:48:30.140Z,96664.69
2022-11-24T15:51:11.545Z,96671.59
2022-11-24T15:53:48.811Z,96643.13
2022-11-24T15:56:23.049Z,96648.56
2022-11-24T15:58:49.840Z,96667.00
2022-11-24T16:01:16.800Z,96651.50
2022-11-24T16:03:48.359Z,96616.00
2022-11-24T16:06:24.076Z,96647.69
2022-11-24T16:08:52.104Z,96617.09
2022-11-24T16:11:18.773Z,96607.16
2022-11-24T16:13:51.503Z,96632.44
2022-11-24T16:16:20.052Z,96625.59
2022-11-24T16:18:46.954Z,96610.53
2022-11-24T16:21:13.712Z,96585.88
2022-11-24T16:23:40.485Z,96604.59
2022-11-24T16:26:07.557Z,96600.03
2022-11-24T16:28:34.492Z,96604.16
2022-11-24T16:31:01.485Z,96598.81
2022-11-24T16:33:31.163Z,96586.19
2022-11-24T16:35:57.829Z,96575.38
2022-11-24T16:38:24.649Z,96565.31
2022-11-24T16:40:56.012Z,96575.53
2022-11-24T16:43:22.886Z,96566.72
2022-11-24T16:46:04.491Z,96558.16
2022-11-24T16:48:35.985Z,96561.53
2022-11-24T16:51:07.086Z,96554.22
2022-11-24T16:53:33.913Z,96543.44
2022-11-24T16:56:00.668Z,96532.91
2022-11-24T16:58:27.597Z,96538.41
2022-11-24T17:00:54.319Z,96531.13
2022-11-24T17:03:21.077Z,96526.22
2022-11-24T17:05:58.316Z,96528.06
2022-11-24T17:08:25.916Z,96523.66
2022-11-24T17:10:52.829Z,96511.63
2022-11-24T17:13:19.472Z,96508.59
2022-11-24T17:15:51.028Z,96513.75
2022-11-24T17:18:25.161Z,96511.00
2022-11-24T17:20:57.685Z,96516.97
2022-11-24T17:23:24.789Z,96518.59
2022-11-24T17:25:51.603Z,96517.53
2022-11-24T17:28:19.042Z,96505.97
2022-11-24T17:30:46.173Z,96491.34
2022-11-24T17:33:13.051Z,96478.41
2022-11-24T17:35:39.772Z,96470.19
2022-11-24T17:38:06.582Z,96460.75
2022-11-24T17:40:33.562Z,96457.25
2022-11-24T17:43:00.721Z,96443.72
2022-11-24T17:45:29.413Z,96433.22
2022-11-24T17:47:58.535Z,96443.06
2022-11-24T17:50:26.239Z,96433.09
2022-11-24T17:52:53.981Z,96419.09
2022-11-24T17:55:21.257Z,96414.69
2022-11-24T17:57:48.035Z,96416.84
2022-11-24T18:00:15.286Z,96416.22
2022-11-24T18:02:42.078Z,96406.50
2022-11-24T18:05:09.255Z,96404.50
2022-11-24T18:07:36.915Z,96400.84
2022-11-24T18:10:04.475Z,96406.91
2022-11-24T18:12:32.461Z,96403.91
2022-11-24T18:14:59.221Z,96411.22
2022-11-24T18:17:25.961Z,96415.97
2022-11-24T18:19:53.206Z,96425.66
2022-11-24T18:22:36.700Z,96428.44
2022-11-24T18:25:07.171Z,96424.00
2022-11-24T18:27:33.964Z,96428.53
2022-11-24T18:30:00.654Z,96427.47
2022-11-24T18:32:27.421Z,96428.56
2022-11-24T18:34:54.363Z,96437.09
2022-11-24T18:37:21.070Z,96438.44
2022-11-24T18:39:47.860Z,96441.44
2022-11-24T18:42:15.364Z,96440.09
2022-11-24T18:44:42.589Z,96443.31
2022-11-24T18:47:09.557Z,96431.16
2022-11-24T18:49:36.351Z,96434.19
2022-11-24T18:52:03.222Z,96423.84
2022-11-24T18:54:29.986Z,96423.69
2022-11-24T18:57:01.771Z,96421.72
2022-11-24T18:59:29.922Z,96421.44
2022-11-24T19:01:58.133Z,96418.69
2022-11-24T19:04:26.315Z,96410.47
2022-11-24T19:06:53.125Z,96403.59
2022-11-24T19:09:22.677Z,96403.75
2022-11-24T19:11:49.784Z,96389.63
2022-11-24T19:14:18.000Z,96376.97
2022-11-24T19:16:47.784Z,96369.84
2022-11-24T19:19:15.161Z,96364.50
2022-11-24T19:21:41.905Z,96354.34
2022-11-24T19:24:13.420Z,96361.72
2022-11-24T19:26:40.546Z,96349.59
2022-11-24T19:29:08.224Z,96337.56
2022-11-24T19:31:35.686Z,96314.38
2022-11-24T19:34:03.239Z,96308.28
2022-11-24T19:36:30.629Z,96316.78
2022-11-24T19:38:58.689Z,96311.56
2022-11-24T19:41:28.503Z,96295.56
2022-11-24T19:43:55.279Z,96292.34
2022-11-24T19:46:26.389Z,96285.34
2022-11-24T19:48:56.207Z,96278.94
2022-11-24T19:51:26.642Z,96267.06
2022-11-24T19:53:54.205Z,96236.78
2022-11-24T19:56:23.700Z,96237.47
2022-11-24T19:58:51.766Z,96233.66
2022-11-24T20:01:24.886Z,96234.72
2022-11-24T20:04:09.623Z,96234.94
2022-11-24T20:06:39.706Z,96227.16
2022-11-24T20:09:08.902Z,96223.75
2022-11-24T20:11:36.496Z,96206.38
2022-11-24T20:14:03.632Z,96217.06
2022-11-24T20:16:32.436Z,96213.28
2022-11-24T20:19:07.360Z,96220.63
2022-11-24T20:21:36.145Z,96230.31
2022-11-24T20:24:14.745Z,96229.13
2022-11-24T20:26:44.568Z,96244.53
2022-11-24T20:29:13.174Z,96237.69
2022-11-24T20:31:45.623Z,96238.03
2022-11-24T20:34:13.505Z,96227.22
2022-11-24T20:36:42.198Z,96217.31
2022-11-24T20:39:13.572Z,96208.41
2022-11-24T20:41:41.435Z,96213.78
2022-11-24T20:44:13.861Z,96212.66
2022-11-24T20:46:42.226Z,96221.56
2022-11-24T20:49:12.505Z,96226.16
2022-11-24T20:51:42.216Z,96227.50
2022-11-24T20:54:11.166Z,96226.88
2022-11-24T20:56:42.354Z,96229.28
2022-11-24T20:59:12.945Z,96236.16
2022-11-24T21:01:42.701Z,96237.50
2022-11-24T21:04:13.659Z,96244.72
2022-11-24T21:06:40.834Z,96234.25
2022-11-24T21:09:08.692Z,96237.00
2022-11-24T21:11:36.472Z,96239.66
2022-11-24T21:14:03.658Z,96230.63
2022-11-24T21:16:32.944Z,96227.03
2022-11-24T21:19:01.801Z,96202.97
2022-11-24T21:21:34.151Z,96201.16
2022-11-24T21:24:06.651Z,96207.56
2022-11-24T21:26:37.794Z,96195.44
2022-11-24T21:29:05.313Z,96173.75
2022-11-24T21:31:35.029Z,96178.47
2022-11-24T21:34:01.766Z,96136.81
2022-11-24T21:36:28.720Z,96132.88
2022-11-24T21:38:57.345Z,96123.13
2022-11-24T21:41:26.685Z,96111.53
2022-11-24T21:43:56.928Z,96117.81
2022-11-24T21:46:24.555Z,96123.63
2022-11-24T21:48:51.693Z,96132.91
2022-11-24T21:51:20.270Z,96136.44
2022-11-24T21:53:47.769Z,96133.97
2022-11-24T21:56:17.159Z,96120.50
2022-11-24T21:58:49.329Z,96133.88
2022-11-24T22:01:17.665Z,96115.97
2022-11-24T22:03:45.811Z,96100.63
2022-11-24T22:06:12.997Z,96097.47
2022-11-24T22:08:40.082Z,96077.78
2022-11-24T22:11:27.077Z,96059.41
2022-11-24T22:13:53.843Z,96075.53
2022-11-24T22:16:22.787Z,96069.25
2022-11-24T22:18:50.097Z,96056.03
2022-11-24T22:21:19.512Z,96060.19
2022-11-24T22:23:46.471Z,96065.41
2022-11-24T22:26:18.617Z,96056.78
2022-11-24T22:28:46.585Z,96076.97
2022-11-24T22:31:21.688Z,96067.94
2022-11-24T22:33:49.548Z,96060.00
2022-11-24T22:36:17.773Z,96039.22
2022-11-24T22:38:44.697Z,96031.34
2022-11-24T22:41:17.309Z,96039.25
2022-11-24T22:43:45.346Z,96033.25
2022-11-24T22:46:17.020Z,96046.63
2022-11-24T22:48:45.249Z,96056.91
2022-11-24T22:51:20.239Z,96048.75
2022-11-24T22:53:48.771Z,96030.47
2022-11-24T22:56:16.350Z,96051.81
2022-11-24T22:58:43.426Z,96049.06
2022-11-24T23:01:15.582Z,96096.44
2022-11-24T23:03:43.455Z,96154.53
2022-11-24T23:06:13.204Z,96207.56
2022-11-24T23:08:40.585Z,96103.47
2022-11-24T23:11:10.049Z,96059.03
2022-11-24T23:13:37.265Z,96044.59
2022-11-24T23:16:06.231Z,96045.75
2022-11-24T23:18:33.611Z,96060.69
2022-11-24T23:21:09.081Z,96057.63
2022-11-24T23:23:35.760Z,96064.63
2022-11-24T23:26:04.746Z,96076.91
2022-11-24T23:28:31.921Z,96106.00
2022-11-24T23:31:04.104Z,96152.25
2022-11-24T23:33:31.492Z,96122.38
2022-11-24T23:36:02.678Z,96120.09
2022-11-24T23:38:32.576Z,96131.16
2022-11-24T23:41:00.993Z,96098.03
2022-11-24T23:43:27.690Z,96084.50
2022-11-24T23:45:54.475Z,96096.78
2022-11-24T23:48:21.293Z,96092.22
2022-11-24T23:50:47.928Z,96092.78
2022-11-24T23:53:14.609Z,96106.34
2022-11-24T23:55:41.295Z,96102.53
2022-11-24T23:58:07.952Z,96099.75
